createdAt,value
2023-03-18T00:00:42.646Z,1000.7
2023-03-18T00:03:42.696Z,1000.7
2023-03-18T00:06:42.655Z,1000.7
2023-03-18T00:09:42.690Z,1000.7
2023-03-18T00:12:42.664Z,1000.6
2023-03-18T00:15:42.702Z,1000.6
2023-03-18T00:18:42.670Z,1000.6
2023-03-18T00:21:42.663Z,1000.7
2023-03-18T00:24:42.666Z,1000.7
2023-03-18T00:27:42.724Z,1000.7
2023-03-18T00:30:42.690Z,1000.8
2023-03-18T00:33:42.668Z,1000.8
2023-03-18T00:36:42.679Z,1000.7
2023-03-18T00:39:42.672Z,1000.7
2023-03-18T00:42:42.677Z,1000.7
2023-03-18T00:45:42.748Z,1000.7
2023-03-18T00:48:42.683Z,1000.7
2023-03-18T00:51:42.683Z,1000.7
2023-03-18T00:54:42.683Z,1000.7
2023-03-18T00:57:42.702Z,1000.9
2023-03-18T01:00:42.747Z,1001
2023-03-18T01:03:42.719Z,1000.9
2023-03-18T01:06:42.699Z,1000.9
2023-03-18T01:09:42.700Z,1000.9
2023-03-18T01:12:42.709Z,1000.9
2023-03-18T01:15:42.705Z,1000.9
2023-03-18T01:18:42.719Z,1000.9
2023-03-18T01:21:42.740Z,1000.9
2023-03-18T01:24:42.719Z,1000.9
2023-03-18T01:27:42.724Z,1000.8
2023-03-18T01:30:42.726Z,1000.7
2023-03-18T01:33:42.767Z,1000.7
2023-03-18T01:36:42.750Z,1000.7
2023-03-18T01:39:42.766Z,1000.8
2023-03-18T01:42:42.748Z,1000.8
2023-03-18T01:45:42.770Z,1000.9
2023-03-18T01:48:42.759Z,1000.9
2023-03-18T01:51:42.752Z,1000.8
2023-03-18T01:54:42.756Z,1000.8
2023-03-18T01:57:42.796Z,1000.8
2023-03-18T02:00:42.817Z,1000.9
2023-03-18T02:03:42.911Z,1000.9
2023-03-18T02:06:42.773Z,1000.9
2023-03-18T02:09:42.782Z,1000.8
2023-03-18T02:12:42.776Z,1000.9
2023-03-18T02:15:42.818Z,1000.9
2023-03-18T02:18:42.776Z,1000.9
2023-03-18T02:21:42.782Z,1000.9
2023-03-18T02:24:42.805Z,1000.9
2023-03-18T02:27:42.812Z,1001
2023-03-18T02:30:42.832Z,1001
2023-03-18T02:33:42.870Z,1001
2023-03-18T02:36:42.813Z,1001.1
2023-03-18T02:39:42.838Z,1001
2023-03-18T02:42:42.810Z,1001.1
2023-03-18T02:45:42.880Z,1001.1
2023-03-18T02:48:42.828Z,1001
2023-03-18T02:51:42.955Z,1001.1
2023-03-18T02:54:42.835Z,1001.1
2023-03-18T02:57:42.841Z,1001.1
2023-03-18T03:00:42.848Z,1001
2023-03-18T03:03:42.869Z,1001.1
2023-03-18T03:06:42.866Z,1001
2023-03-18T03:09:42.886Z,1001.1
2023-03-18T03:12:42.865Z,1001.2
2023-03-18T03:15:42.919Z,1001.3
2023-03-18T03:18:42.880Z,1001.3
2023-03-18T03:21:42.883Z,1001.3
2023-03-18T03:24:42.885Z,1001.3
2023-03-18T03:27:42.914Z,1001.4
2023-03-18T03:30:42.938Z,1001.4
2023-03-18T03:33:42.905Z,1001.4
2023-03-18T03:36:42.908Z,1001.4
2023-03-18T03:39:42.910Z,1001.4
2023-03-18T03:42:42.920Z,1001.5
2023-03-18T03:45:42.953Z,1001.4
2023-03-18T03:48:42.924Z,1001.4
2023-03-18T03:51:42.928Z,1001.4
2023-03-18T03:54:42.941Z,1001.4
2023-03-18T03:57:42.942Z,1001.5
2023-03-18T04:00:42.945Z,1001.5
2023-03-18T04:03:42.985Z,1001.4
2023-03-18T04:06:42.951Z,1001.5
2023-03-18T04:09:42.960Z,1001.6
2023-03-18T04:12:42.968Z,1001.6
2023-03-18T04:15:43.021Z,1001.7
2023-03-18T04:18:42.967Z,1001.7
2023-03-18T04:21:43.007Z,1001.7
2023-03-18T04:24:42.980Z,1001.7
2023-03-18T04:27:43.019Z,1001.7
2023-03-18T04:30:42.996Z,1001.7
2023-03-18T04:33:42.999Z,1001.7
2023-03-18T04:36:43.011Z,1001.7
2023-03-18T04:39:43.044Z,1001.7
2023-03-18T04:42:43.031Z,1001.7
2023-03-18T04:45:43.027Z,1001.7
2023-03-18T04:48:43.040Z,1001.7
2023-03-18T04:51:43.046Z,1001.7
2023-03-18T04:54:43.045Z,1001.7
2023-03-18T04:57:43.090Z,1001.7
2023-03-18T05:00:43.115Z,1001.8
2023-03-18T05:03:43.121Z,1001.8
2023-03-18T05:06:43.084Z,1001.9
2023-03-18T05:09:43.089Z,1001.9
2023-03-18T05:12:43.090Z,1001.8
2023-03-18T05:15:43.124Z,1001.9
2023-03-18T05:18:43.115Z,1002
2023-03-18T05:21:43.119Z,1002
2023-03-18T05:24:43.136Z,1002
2023-03-18T05:27:43.134Z,1002
2023-03-18T05:30:43.154Z,1002
2023-03-18T05:33:43.172Z,1002
2023-03-18T05:36:43.160Z,1002
2023-03-18T05:39:44.776Z,1002.1
2023-03-18T05:42:55.259Z,1002.1
2023-03-18T05:45:43.256Z,1002
2023-03-18T05:48:43.179Z,1002
2023-03-18T05:51:43.219Z,1001.9
2023-03-18T05:54:43.198Z,1002
2023-03-18T05:57:43.200Z,1002
2023-03-18T06:00:43.210Z,1002.1
2023-03-18T06:03:43.232Z,1002
2023-03-18T06:06:43.235Z,1002
2023-03-18T06:09:43.271Z,1001.9
2023-03-18T06:12:43.231Z,1001.9
2023-03-18T06:15:43.234Z,1001.9
2023-03-18T06:18:43.240Z,1002
2023-03-18T06:21:43.248Z,1002
2023-03-18T06:24:43.255Z,1002
2023-03-18T06:27:43.282Z,1002
2023-03-18T06:30:43.279Z,1002
2023-03-18T06:33:43.268Z,1002
2023-03-18T06:36:43.275Z,1002
2023-03-18T06:39:43.284Z,1002.1
2023-03-18T06:42:43.283Z,1002.1
2023-03-18T06:45:43.315Z,1002.2
2023-03-18T06:48:43.291Z,1002.2
2023-03-18T06:51:43.300Z,1002.2
2023-03-18T06:54:43.301Z,1002.3
2023-03-18T06:57:43.309Z,1002.3
2023-03-18T07:00:43.343Z,1002.2
2023-03-18T07:03:43.340Z,1002.3
2023-03-18T07:06:43.316Z,1002.4
2023-03-18T07:09:43.314Z,1002.4
2023-03-18T07:12:43.324Z,1002.3
2023-03-18T07:15:43.344Z,1002.5
2023-03-18T07:18:43.335Z,1002.5
2023-03-18T07:21:43.361Z,1002.6
2023-03-18T07:24:43.344Z,1002.6
2023-03-18T07:27:43.345Z,1002.7
2023-03-18T07:30:43.338Z,1002.6
2023-03-18T07:33:43.340Z,1002.6
2023-03-18T07:36:43.337Z,1002.6
2023-03-18T07:39:43.370Z,1002.6
2023-03-18T07:42:43.349Z,1002.6
2023-03-18T07:45:43.345Z,1002.7
2023-03-18T07:48:43.356Z,1002.7
2023-03-18T07:51:43.382Z,1002.8
2023-03-18T07:54:43.392Z,1002.8
2023-03-18T07:57:43.415Z,1002.8
2023-03-18T08:00:43.395Z,1002.8
2023-03-18T08:03:43.416Z,1002.9
2023-03-18T08:06:43.418Z,1003
2023-03-18T08:09:43.414Z,1003
2023-03-18T08:12:52.421Z,1003
2023-03-18T08:15:43.478Z,1003
2023-03-18T08:18:43.447Z,1003.1
2023-03-18T08:21:43.466Z,1003.1
2023-03-18T08:24:45.477Z,1003.2
2023-03-18T08:27:43.478Z,1003.2
2023-03-18T08:30:43.479Z,1003.3
2023-03-18T08:33:43.526Z,1003.3
2023-03-18T08:36:43.507Z,1003.3
2023-03-18T08:39:43.518Z,1003.3
2023-03-18T08:42:43.528Z,1003.3
2023-03-18T08:45:43.610Z,1003.3
2023-03-18T08:48:43.550Z,1003.2
2023-03-18T08:51:43.588Z,1003.2
2023-03-18T08:54:43.578Z,1003.3
2023-03-18T08:57:43.616Z,1003.3
2023-03-18T09:00:43.603Z,1003.4
2023-03-18T09:03:43.715Z,1003.4
2023-03-18T09:06:43.626Z,1003.3
2023-03-18T09:09:44.348Z,1003.3
2023-03-18T09:12:43.652Z,1003.4
2023-03-18T09:15:43.678Z,1003.5
2023-03-18T09:18:45.290Z,1003.4
2023-03-18T09:21:43.674Z,1003.5
2023-03-18T09:24:43.692Z,1003.4
2023-03-18T09:27:43.727Z,1003.4
2023-03-18T09:30:43.778Z,1003.5
2023-03-18T09:33:43.725Z,1003.6
2023-03-18T09:36:43.737Z,1003.4
2023-03-18T09:39:43.749Z,1003.5
2023-03-18T09:42:43.766Z,1003.6
2023-03-18T09:45:43.817Z,1003.6
2023-03-18T09:48:43.783Z,1003.6
2023-03-18T09:51:43.798Z,1003.5
2023-03-18T09:54:43.807Z,1003.6
2023-03-18T09:57:43.827Z,1003.6
2023-03-18T10:00:43.841Z,1003.6
2023-03-18T10:03:43.936Z,1003.6
2023-03-18T10:06:43.870Z,1003.7
2023-03-18T10:09:43.874Z,1003.7
2023-03-18T10:12:43.891Z,1003.7
2023-03-18T10:15:43.933Z,1003.6
2023-03-18T10:18:43.911Z,1003.8
2023-03-18T10:21:43.955Z,1003.7
2023-03-18T10:24:43.941Z,1003.7
2023-03-18T10:27:43.956Z,1003.9
2023-03-18T10:30:43.965Z,1003.9
2023-03-18T10:33:43.981Z,1003.9
2023-03-18T10:36:43.990Z,1004
2023-03-18T10:39:44.031Z,1003.8
2023-03-18T10:42:44.016Z,1003.8
2023-03-18T10:45:44.030Z,1003.8
2023-03-18T10:48:44.045Z,1003.8
2023-03-18T10:51:44.065Z,1003.8
2023-03-18T10:54:44.102Z,1003.9
2023-03-18T10:57:44.119Z,1003.9
2023-03-18T11:00:44.104Z,1003.9
2023-03-18T11:03:44.116Z,1003.9
2023-03-18T11:06:44.151Z,1003.9
2023-03-18T11:09:44.154Z,1003.9
2023-03-18T11:12:44.191Z,1003.9
2023-03-18T11:15:44.245Z,1003.9
2023-03-18T11:18:44.197Z,1003.9
2023-03-18T11:21:44.212Z,1003.9
2023-03-18T11:24:44.235Z,1003.9
2023-03-18T11:27:44.249Z,1004
2023-03-18T11:30:44.580Z,1004
2023-03-18T11:33:44.304Z,1004
2023-03-18T11:36:44.293Z,1004
2023-03-18T11:39:44.305Z,1004
2023-03-18T11:42:44.320Z,1003.9
2023-03-18T11:45:44.377Z,1004
2023-03-18T11:48:44.349Z,1004
2023-03-18T11:51:44.393Z,1003.9
2023-03-18T11:54:44.376Z,1003.9
2023-03-18T11:57:44.387Z,1003.9
2023-03-18T12:00:44.403Z,1003.9
2023-03-18T12:03:44.411Z,1003.8
2023-03-18T12:06:44.409Z,1003.8
2023-03-18T12:09:44.450Z,1003.8
2023-03-18T12:12:44.425Z,1003.9
2023-03-18T12:15:44.432Z,1003.8
2023-03-18T12:18:44.440Z,1003.9
2023-03-18T12:21:44.442Z,1003.9
2023-03-18T12:24:44.448Z,1003.9
2023-03-18T12:27:44.478Z,1003.9
2023-03-18T12:30:44.456Z,1003.9
2023-03-18T12:33:44.455Z,1003.9
2023-03-18T12:36:44.550Z,1004
2023-03-18T12:39:44.476Z,1004
2023-03-18T12:42:44.483Z,1004
2023-03-18T12:45:44.583Z,1004
2023-03-18T12:48:44.918Z,1004
2023-03-18T12:51:44.487Z,1004
2023-03-18T12:54:44.494Z,1003.8
2023-03-18T12:57:44.534Z,1003.8
2023-03-18T13:00:44.528Z,1003.8
2023-03-18T13:03:44.536Z,1003.8
2023-03-18T13:06:44.504Z,1003.8
2023-03-18T13:09:44.511Z,1003.8
2023-03-18T13:12:44.520Z,1003.8
2023-03-18T13:15:44.526Z,1003.7
2023-03-18T13:18:44.526Z,1003.8
2023-03-18T13:21:44.565Z,1003.8
2023-03-18T13:24:44.535Z,1003.8
2023-03-18T13:27:44.554Z,1003.9
2023-03-18T13:30:44.561Z,1003.8
2023-03-18T13:33:44.545Z,1003.8
2023-03-18T13:36:44.556Z,1003.8
2023-03-18T13:39:44.580Z,1003.8
2023-03-18T13:42:44.593Z,1003.8
2023-03-18T13:45:44.567Z,1003.9
2023-03-18T13:48:44.577Z,1003.8
2023-03-18T13:51:44.577Z,1003.8
2023-03-18T13:54:46.330Z,1003.8
2023-03-18T13:57:44.606Z,1003.8
2023-03-18T14:00:44.585Z,1003.8
2023-03-18T14:03:44.648Z,1003.8
2023-03-18T14:06:44.594Z,1003.8
2023-03-18T14:09:44.598Z,1003.8
2023-03-18T14:12:44.603Z,1003.8
2023-03-18T14:15:44.746Z,1003.8
2023-03-18T14:18:44.609Z,1003.7
2023-03-18T14:21:44.620Z,1003.7
2023-03-18T14:24:44.630Z,1003.7
2023-03-18T14:27:44.627Z,1003.7
2023-03-18T14:30:44.655Z,1003.7
2023-03-18T14:33:44.667Z,1003.7
2023-03-18T14:36:44.642Z,1003.7
2023-03-18T14:39:44.646Z,1003.7
2023-03-18T14:42:44.649Z,1003.7
2023-03-18T14:45:44.663Z,1003.8
2023-03-18T14:48:44.659Z,1003.7
2023-03-18T14:51:44.695Z,1003.7
2023-03-18T14:54:44.665Z,1003.6
2023-03-18T14:57:44.710Z,1003.6
2023-03-18T15:00:44.676Z,1003.7
2023-03-18T15:03:44.683Z,1003.6
2023-03-18T15:06:44.686Z,1003.6
2023-03-18T15:09:44.708Z,1003.6
2023-03-18T15:12:44.688Z,1003.7
2023-03-18T15:15:44.694Z,1003.7
2023-03-18T15:18:44.707Z,1003.7
2023-03-18T15:21:44.700Z,1003.7
2023-03-18T15:24:44.710Z,1003.6
2023-03-18T15:27:44.739Z,1003.6
2023-03-18T15:30:44.715Z,1003.6
2023-03-18T15:33:44.718Z,1003.6
2023-03-18T15:36:44.722Z,1003.7
2023-03-18T15:39:44.742Z,1003.6
2023-03-18T15:42:44.740Z,1003.7
2023-03-18T15:45:44.772Z,1003.7
2023-03-18T15:48:44.756Z,1003.7
2023-03-18T15:51:44.756Z,1003.7
2023-03-18T15:54:44.756Z,1003.7
2023-03-18T15:57:44.761Z,1003.7
2023-03-18T16:00:44.828Z,1003.7
2023-03-18T16:03:44.796Z,1003.7
2023-03-18T16:06:44.777Z,1003.7
2023-03-18T16:09:44.777Z,1003.7
2023-03-18T16:12:44.779Z,1003.7
2023-03-18T16:15:44.809Z,1003.7
2023-03-18T16:18:44.799Z,1003.7
2023-03-18T16:21:44.861Z,1003.8
2023-03-18T16:24:44.806Z,1003.8
2023-03-18T16:27:44.812Z,1003.8
2023-03-18T16:30:44.823Z,1003.8
2023-03-18T16:33:44.817Z,1003.9
2023-03-18T16:36:44.822Z,1003.9
2023-03-18T16:39:44.847Z,1003.7
2023-03-18T16:42:44.827Z,1003.9
2023-03-18T16:45:44.841Z,1004
2023-03-18T16:48:44.834Z,1003.9
2023-03-18T16:51:44.832Z,1004
2023-03-18T16:54:44.836Z,1004
2023-03-18T16:57:44.876Z,1004.1
2023-03-18T17:00:44.852Z,1004
2023-03-18T17:03:44.853Z,1004
2023-03-18T17:06:44.856Z,1004
2023-03-18T17:09:44.866Z,1004
2023-03-18T17:12:44.864Z,1004.1
2023-03-18T17:15:44.931Z,1004.1
2023-03-18T17:18:44.871Z,1004.1
2023-03-18T17:21:44.877Z,1004.2
2023-03-18T17:24:44.884Z,1004.2
2023-03-18T17:27:44.883Z,1004.2
2023-03-18T17:30:44.937Z,1004.3
2023-03-18T17:33:44.925Z,1004.3
2023-03-18T17:36:44.896Z,1004.3
2023-03-18T17:39:44.907Z,1004.3
2023-03-18T17:42:44.912Z,1004.4
2023-03-18T17:45:44.908Z,1004.4
2023-03-18T17:48:44.908Z,1004.3
2023-03-18T17:51:44.942Z,1004.4
2023-03-18T17:54:44.935Z,1004.4
2023-03-18T17:57:44.930Z,1004.4
2023-03-18T18:00:44.926Z,1004.5
2023-03-18T18:03:44.929Z,1004.5
2023-03-18T18:06:45.192Z,1004.5
2023-03-18T18:09:44.967Z,1004.4
2023-03-18T18:12:45.605Z,1004.4
2023-03-18T18:15:44.961Z,1004.4
2023-03-18T18:18:46.584Z,1004.4
2023-03-18T18:21:44.965Z,1004.3
2023-03-18T18:24:44.964Z,1004.4
2023-03-18T18:27:45.003Z,1004.3
2023-03-18T18:30:44.975Z,1004.3
2023-03-18T18:33:44.991Z,1004.4
2023-03-18T18:36:44.991Z,1004.4
2023-03-18T18:39:44.989Z,1004.4
2023-03-18T18:42:45.005Z,1004.4
2023-03-18T18:45:45.025Z,1004.5
2023-03-18T18:48:45.034Z,1004.5
2023-03-18T18:51:45.021Z,1004.5
2023-03-18T18:54:45.035Z,1004.5
2023-03-18T18:57:45.049Z,1004.5
2023-03-18T19:00:45.087Z,1004.5
2023-03-18T19:03:45.131Z,1004.4
2023-03-18T19:06:45.033Z,1004.4
2023-03-18T19:09:45.047Z,1004.5
2023-03-18T19:12:45.143Z,1004.5
2023-03-18T19:15:45.110Z,1004.6
2023-03-18T19:18:45.091Z,1004.5
2023-03-18T19:21:45.085Z,1004.5
2023-03-18T19:24:45.068Z,1004.6
2023-03-18T19:27:45.063Z,1004.7
2023-03-18T19:30:45.074Z,1004.7
2023-03-18T19:33:45.077Z,1004.8
2023-03-18T19:36:45.077Z,1004.8
2023-03-18T19:39:45.111Z,1004.8
2023-03-18T19:42:45.085Z,1004.7
2023-03-18T19:45:45.101Z,1004.8
2023-03-18T19:48:45.098Z,1004.7
2023-03-18T19:51:45.093Z,1004.6
2023-03-18T19:54:45.101Z,1004.7
2023-03-18T19:57:45.132Z,1004.8
2023-03-18T20:00:45.155Z,1004.8
2023-03-18T20:03:45.152Z,1004.8
2023-03-18T20:06:45.132Z,1004.8
2023-03-18T20:09:45.127Z,1004.9
2023-03-18T20:12:45.142Z,1004.9
2023-03-18T20:15:45.163Z,1004.9
2023-03-18T20:18:45.147Z,1005
2023-03-18T20:21:45.144Z,1004.9
2023-03-18T20:24:45.151Z,1004.9
2023-03-18T20:27:45.155Z,1005
2023-03-18T20:30:45.173Z,1005
2023-03-18T20:33:45.190Z,1005
2023-03-18T20:36:45.161Z,1004.9
2023-03-18T20:39:45.169Z,1005
2023-03-18T20:42:45.170Z,1004.9
2023-03-18T20:45:45.246Z,1005
2023-03-18T20:48:45.180Z,1005
2023-03-18T20:51:45.214Z,1005
2023-03-18T20:54:45.194Z,1004.9
2023-03-18T20:57:45.199Z,1005
2023-03-18T21:00:45.202Z,1005
2023-03-18T21:03:45.360Z,1005
2023-03-18T21:06:45.214Z,1004.9
2023-03-18T21:09:45.243Z,1004.9
2023-03-18T21:12:45.221Z,1004.8
2023-03-18T21:15:45.217Z,1004.8
2023-03-18T21:18:45.220Z,1004.9
2023-03-18T21:21:45.232Z,1004.9
2023-03-18T21:24:45.226Z,1004.9
2023-03-18T21:27:45.255Z,1004.9
2023-03-18T21:30:45.415Z,1004.8
2023-03-18T21:33:45.234Z,1004.9
2023-03-18T21:36:45.236Z,1004.9
2023-03-18T21:39:45.242Z,1004.9
2023-03-18T21:42:45.249Z,1004.9
2023-03-18T21:45:45.271Z,1004.9
2023-03-18T21:48:45.248Z,1004.9
2023-03-18T21:51:45.258Z,1004.9
2023-03-18T21:54:45.263Z,1004.9
2023-03-18T21:57:47.641Z,1004.9
2023-03-18T22:00:45.277Z,1005
2023-03-18T22:03:45.326Z,1005
2023-03-18T22:06:45.278Z,1004.9
2023-03-18T22:09:45.282Z,1005
2023-03-18T22:12:45.290Z,1005
2023-03-18T22:15:45.347Z,1005
2023-03-18T22:18:45.303Z,1005
2023-03-18T22:21:45.329Z,1005
2023-03-18T22:24:45.310Z,1005
2023-03-18T22:27:45.308Z,1005
2023-03-18T22:30:45.310Z,1005
2023-03-18T22:33:45.313Z,1004.9
2023-03-18T22:36:45.321Z,1005
2023-03-18T22:39:45.341Z,1005
2023-03-18T22:42:45.325Z,1004.9
2023-03-18T22:45:45.339Z,1004.9
2023-03-18T22:48:45.329Z,1004.8
2023-03-18T22:51:45.342Z,1004.8
2023-03-18T22:54:45.332Z,1004.8
2023-03-18T22:57:45.491Z,1004.8
2023-03-18T23:00:45.418Z,1004.9
2023-03-18T23:03:45.419Z,1005
2023-03-18T23:06:45.463Z,1004.8
2023-03-18T23:09:56.055Z,1004.8
2023-03-18T23:12:45.422Z,1004.9
2023-03-18T23:15:45.461Z,1005.1
2023-03-18T23:18:45.450Z,1005.2
2023-03-18T23:21:45.427Z,1005.2
2023-03-18T23:24:45.426Z,1005.3
2023-03-18T23:27:45.461Z,1005.4
2023-03-18T23:30:45.426Z,1005.3
2023-03-18T23:33:45.457Z,1005.2
2023-03-18T23:36:45.429Z,1005.2
2023-03-18T23:39:45.437Z,1005.4
2023-03-18T23:42:45.448Z,1005.4
2023-03-18T23:45:45.555Z,1005.6
2023-03-18T23:48:45.430Z,1005.7
2023-03-18T23:51:45.451Z,1005.7
2023-03-18T23:54:45.429Z,1005.8
2023-03-18T23:57:45.428Z,1005.7
